| time (UTC) | temp F | wind direction | speed knots | gust knots | rain 1hr in | rain 24hr in | rain mn in | humidity % | barometer mb |
| 20260503021529 | 43 | 0 | 0.9 | 4.3 | 0.00 | 0.00 | 0.00 | 53 | 1015.9 |
| 20260503020034 | 44 | 209 | 0.9 | 3.5 | 0.00 | 0.00 | 0.00 | 52 | 1016.0 |
| 20260503014541 | 44 | 250 | 0.9 | 3.5 | 0.00 | 0.00 | 0.00 | 50 | 1015.9 |
| 20260503013033 | 45 | 0 | 0.9 | 4.3 | 0.00 | 0.00 | 0.00 | 48 | 1015.8 |
| 20260503011530 | 46 | 262 | 1.7 | 6.1 | 0.00 | 0.00 | 0.00 | 47 | 1015.8 |
| 20260503010036 | 47 | 203 | 0.9 | 7.8 | 0.00 | 0.00 | 0.00 | 45 | 1015.8 |
| 20260503004530 | 47 | 279 | 0.9 | 6.1 | 0.00 | 0.00 | 0.00 | 43 | 1015.6 |
| 20260503003028 | 48 | 238 | 2.6 | 8.7 | 0.00 | 0.00 | 0.00 | 41 | 1015.5 |
| 20260503001528 | 49 | 252 | 1.7 | 8.7 | 0.00 | 0.00 | 0.00 | 40 | 1015.5 |
| 20260503000029 | 50 | 248 | 3.5 | 8.7 | 0.00 | 0.00 | 0.00 | 38 | 1015.6 |
| 20260502234529 | 50 | 0 | 1.7 | 6.1 | 0.00 | 0.00 | 0.00 | 37 | 1015.6 |
| 20260502233028 | 51 | 290 | 2.6 | 7.0 | 0.00 | 0.00 | 0.00 | 36 | 1015.6 |
| 20260502231528 | 51 | 290 | 0.9 | 8.7 | 0.00 | 0.00 | 0.00 | 36 | 1015.7 |
| 20260502230030 | 51 | 324 | 0.9 | 7.0 | 0.00 | 0.00 | 0.00 | 34 | 1015.8 |
| 20260502224530 | 51 | 268 | 1.7 | 7.8 | 0.00 | 0.00 | 0.00 | 35 | 1015.9 |
| 20260502223034 | 51 | 260 | 1.7 | 10.4 | 0.00 | 0.00 | 0.00 | 35 | 1015.8 |
| 20260502221529 | 52 | 259 | 2.6 | 8.7 | 0.00 | 0.00 | 0.00 | 35 | 1016.1 |
| 20260502220028 | 52 | 295 | 1.7 | 7.8 | 0.00 | 0.00 | 0.00 | 35 | 1016.0 |
| 20260502214530 | 53 | 209 | 2.6 | 9.6 | 0.00 | 0.00 | 0.00 | 37 | 1015.9 |
| 20260502213030 | 53 | 275 | 0.9 | 7.8 | 0.00 | 0.00 | 0.00 | 36 | 1016.1 |
| 20260502211540 | 54 | 283 | 4.3 | 9.6 | 0.00 | 0.00 | 0.00 | 35 | 1016.0 |
| 20260502210034 | 54 | 303 | 1.7 | 8.7 | 0.00 | 0.00 | 0.00 | 38 | 1016.1 |
| 20260502204527 | 52 | 287 | 4.3 | 12.2 | 0.00 | 0.00 | 0.00 | 40 | 1016.2 |
| 20260502203029 | 51 | 294 | 6.1 | 14.8 | 0.00 | 0.00 | 0.00 | 40 | 1016.5 |
| 20260502201528 | 51 | 269 | 5.2 | 12.2 | 0.00 | 0.00 | 0.00 | 41 | 1016.6 |
| 20260502200028 | 51 | 262 | 1.7 | 12.2 | 0.00 | 0.00 | 0.00 | 42 | 1016.7 |
| 20260502194530 | 52 | 0 | 4.3 | 11.3 | 0.00 | 0.00 | 0.00 | 42 | 1016.9 |
| 20260502193030 | 51 | 288 | 7.8 | 12.2 | 0.00 | 0.00 | 0.00 | 43 | 1017.2 |
| 20260502191527 | 51 | 0 | 1.7 | 9.6 | 0.00 | 0.00 | 0.00 | 43 | 1017.2 |
| 20260502190034 | 50 | 286 | 1.7 | 6.1 | 0.00 | 0.00 | 0.00 | 44 | 1017.5 |
| 20260502184545 | 51 | 244 | 2.6 | 10.4 | 0.00 | 0.00 | 0.00 | 42 | 1017.6 |
| 20260502183047 | 50 | 316 | 4.3 | 17.4 | 0.00 | 0.00 | 0.00 | 45 | 1017.7 |
| 20260502181538 | 49 | 294 | 3.5 | 9.6 | 0.00 | 0.00 | 0.00 | 47 | 1017.7 |
| 20260502163039 | 48 | 0 | 0.0 | 7.0 | 0.00 | 0.00 | 0.00 | 51 | 1018.6 |
| 20260502161528 | 47 | 313 | 0.9 | 8.7 | 0.00 | 0.00 | 0.00 | 51 | 1018.6 |
| 20260502151534 | 46 | 348 | 1.7 | 6.1 | 0.00 | 0.00 | 0.00 | 52 | 1018.6 |
| 20260502123028 | 39 | 43 | 1.7 | 6.1 | 0.00 | 0.00 | 0.00 | 77 | 1019.1 |
| 20260502121528 | 37 | 0 | 0.9 | 4.3 | 0.00 | 0.00 | 0.00 | 82 | 1019.1 |
| 20260502114527 | 33 | 0 | 0.0 | 0.9 | 0.00 | 0.00 | 0.00 | 87 | 1018.8 |
| 20260502113029 | 32 | 0 | 0.0 | 0.0 | 0.00 | 0.00 | 0.00 | 86 | 1018.8 |
| 20260502111528 | 31 | 0 | 0.0 | 0.0 | 0.00 | 0.00 | 0.00 | 84 | 1018.7 |
| 20260502110036 | 31 | 0 | 0.0 | 0.0 | 0.00 | 0.00 | 0.00 | 83 | 1018.6 |
| 20260502104527 | 32 | 0 | 0.0 | 0.0 | 0.00 | 0.00 | 0.00 | 83 | 1018.6 |
| 20260502103033 | 32 | 0 | 0.0 | 0.0 | 0.00 | 0.00 | 0.00 | 82 | 1018.7 |
| 20260502101544 | 33 | 0 | 0.0 | 0.0 | 0.00 | 0.00 | 0.00 | 81 | 1018.5 |
| 20260502091532 | 35 | 0 | 0.0 | 0.0 | 0.00 | 0.00 | 0.00 | 77 | 1018.4 |
| 20260502071529 | 37 | 0 | 0.0 | 0.0 | 0.00 | 0.00 | 0.00 | 74 | 1017.9 |
| 20260502070050 | 37 | 0 | 0.0 | 0.0 | 0.00 | 0.00 | 0.00 | 73 | 1018.1 |
| 20260502064529 | 37 | 0 | 0.0 | 0.0 | 0.00 | 0.00 | 0.00 | 73 | 1018.1 |
| 20260502063036 | 37 | 0 | 0.0 | 1.7 | 0.00 | 0.00 | 0.00 | 72 | 1018.2 |
| 20260502061527 | 37 | 0 | 0.0 | 1.7 | 0.00 | 0.00 | 0.00 | 71 | 1018.2 |
| 20260502060030 | 37 | 0 | 0.0 | 0.9 | 0.00 | 0.00 | 0.00 | 70 | 1018.3 |
| 20260502054530 | 37 | 0 | 0.0 | 0.9 | 0.00 | 0.00 | 0.00 | 70 | 1018.3 |
| 20260502053027 | 37 | 298 | 0.0 | 0.9 | 0.00 | 0.00 | 0.00 | 70 | 1018.3 |
| 20260502051531 | 38 | 298 | 0.0 | 0.9 | 0.00 | 0.00 | 0.00 | 70 | 1018.2 |
| 20260502050028 | 38 | 0 | 0.0 | 0.9 | 0.00 | 0.00 | 0.00 | 69 | 1018.2 |
| 20260502044528 | 38 | 0 | 0.0 | 2.6 | 0.00 | 0.00 | 0.00 | 67 | 1018.1 |
| 20260502043031 | 38 | 0 | 0.0 | 2.6 | 0.00 | 0.00 | 0.00 | 67 | 1018.1 |
| 20260502041528 | 39 | 0 | 0.9 | 3.5 | 0.00 | 0.00 | 0.00 | 66 | 1017.9 |
| 20260502040029 | 39 | 337 | 0.9 | 7.0 | 0.00 | 0.00 | 0.00 | 65 | 1017.9 |
| 20260502034530 | 39 | 5 | 0.9 | 6.1 | 0.00 | 0.00 | 0.00 | 65 | 1017.8 |
| 20260502033029 | 39 | 340 | 0.9 | 3.5 | 0.00 | 0.00 | 0.00 | 65 | 1017.8 |
| 20260502031528 | 39 | 330 | 0.9 | 5.2 | 0.00 | 0.00 | 0.00 | 64 | 1017.7 |
| 20260502030028 | 40 | 0 | 0.9 | 5.2 | 0.00 | 0.00 | 0.00 | 63 | 1017.7 |
| 20260502024533 | 40 | 315 | 0.9 | 4.3 | 0.00 | 0.00 | 0.00 | 62 | 1017.7 |
| 20260502023028 | 40 | 343 | 0.9 | 5.2 | 0.00 | 0.00 | 0.00 | 60 | 1017.6 |